Time,TemperatureF,DewpointF,PressureIn,WindDirection,WindDirectionDegrees,WindSpeedMPH,WindSpeedGustMPH,Humidity,HourlyPrecipIn,Conditions,Clouds,dailyrainin,SoftwareType,DateUTC
2013-11-03 00:01:00,57.2,42.1,29.93,North,0,7.6,7.6,57,0.00,,,0.00,meteobridge,2013-11-03 04:01:00,
2013-11-03 00:02:00,57.2,42.1,29.94,NW,315,7.6,7.6,57,0.00,,,0.00,meteobridge,2013-11-03 04:02:00,
2013-11-03 00:03:00,57.2,42.1,29.93,North,0,7.6,7.6,57,0.00,,,0.00,meteobridge,2013-11-03 04:03:00,
2013-11-03 00:08:00,57.2,42.1,29.94,NW,315,6.9,7.6,57,0.00,,,0.00,meteobridge,2013-11-03 04:08:00,
2013-11-03 00:14:00,57.0,41.9,29.94,WNW,293,7.6,9.8,57,0.00,,,0.00,meteobridge,2013-11-03 04:14:00,
2013-11-03 00:19:00,57.0,42.4,29.94,NW,315,6.0,6.0,58,0.00,,,0.00,meteobridge,2013-11-03 04:19:00,
2013-11-03 00:24:00,56.8,41.7,29.94,NNW,338,7.6,8.3,57,0.00,,,0.00,meteobridge,2013-11-03 04:24:00,
2013-11-03 00:29:00,56.8,40.5,29.94,North,0,8.3,9.8,54,0.00,,,0.00,meteobridge,2013-11-03 04:29:00,
2013-11-03 00:34:00,56.8,40.8,29.94,NW,315,7.6,8.3,55,0.00,,,0.00,meteobridge,2013-11-03 04:34:00,
2013-11-03 00:39:00,56.7,40.6,29.94,NW,315,10.7,10.7,55,0.00,,,0.00,meteobridge,2013-11-03 04:39:00,
2013-11-03 00:45:00,56.7,40.3,29.94,NW,315,6.9,8.3,54,0.00,,,0.00,meteobridge,2013-11-03 04:45:00,
2013-11-03 00:50:00,56.3,40.3,29.94,NW,315,6.9,7.6,55,0.00,,,0.00,meteobridge,2013-11-03 04:50:00,
2013-11-03 00:55:00,56.3,40.3,29.95,NW,315,10.7,10.7,55,0.00,,,0.00,meteobridge,2013-11-03 04:55:00,
2013-11-03 01:00:00,56.3,40.8,29.95,NW,315,3.8,5.4,56,0.00,,,0.00,meteobridge,2013-11-03 05:00:00,
2013-11-03 01:05:00,55.9,39.9,29.95,NW,315,6.0,6.9,55,0.00,,,0.00,meteobridge,2013-11-03 05:05:00,
2013-11-03 01:10:00,55.9,39.9,29.96,West,270,3.8,6.9,55,0.00,,,0.00,meteobridge,2013-11-03 05:10:00,
2013-11-03 01:16:00,55.9,39.0,29.96,North,0,6.9,6.9,53,0.00,,,0.00,meteobridge,2013-11-03 05:16:00,
2013-11-03 01:21:00,55.8,39.9,29.96,North,0,3.1,8.3,55,0.00,,,0.00,meteobridge,2013-11-03 05:21:00,
2013-11-03 01:26:00,55.8,39.9,29.96,NW,315,6.9,7.6,55,0.00,,,0.00,meteobridge,2013-11-03 05:26:00,
2013-11-03 01:31:00,55.4,39.6,29.96,NW,315,6.0,6.0,55,0.00,,,0.00,meteobridge,2013-11-03 05:31:00,
2013-11-03 01:36:00,55.4,39.6,29.96,WNW,293,6.0,9.2,55,0.00,,,0.00,meteobridge,2013-11-03 05:36:00,
2013-11-03 01:41:00,55.2,39.4,29.96,NW,315,5.4,7.6,55,0.00,,,0.00,meteobridge,2013-11-03 05:41:00,
2013-11-03 01:47:00,55.2,39.4,29.96,North,0,8.3,9.8,55,0.00,,,0.00,meteobridge,2013-11-03 05:47:00,
2013-11-03 01:52:00,55.2,38.8,29.96,NW,315,11.4,11.4,54,0.00,,,0.00,meteobridge,2013-11-03 05:52:00,
2013-11-03 01:57:00,55.2,40.6,29.97,NW,315,6.9,8.3,58,0.00,,,0.00,meteobridge,2013-11-03 05:57:00,
2013-11-03 01:02:00,55.0,39.6,29.96,NW,315,6.0,9.2,56,0.00,,,0.00,meteobridge,2013-11-03 06:02:00,
2013-11-03 01:07:00,55.0,38.7,29.97,North,0,10.7,10.7,54,0.00,,,0.00,meteobridge,2013-11-03 06:07:00,
2013-11-03 01:12:00,54.9,39.0,29.97,NW,315,10.7,12.1,55,0.00,,,0.00,meteobridge,2013-11-03 06:12:00,
2013-11-03 01:18:00,54.9,38.5,29.97,North,0,9.2,9.2,54,0.00,,,0.00,meteobridge,2013-11-03 06:18:00,
2013-11-03 01:23:00,54.7,39.7,29.97,North,0,7.6,8.3,57,0.00,,,0.00,meteobridge,2013-11-03 06:23:00,
2013-11-03 01:28:00,54.7,39.4,29.98,North,0,7.6,9.8,56,0.00,,,0.00,meteobridge,2013-11-03 06:28:00,
2013-11-03 01:33:00,54.5,39.6,29.97,NW,315,9.8,9.8,57,0.00,,,0.00,meteobridge,2013-11-03 06:33:00,
2013-11-03 01:38:00,54.3,40.3,29.98,North,0,9.2,9.2,59,0.00,,,0.00,meteobridge,2013-11-03 06:38:00,
2013-11-03 01:43:00,54.3,38.5,29.98,North,0,8.3,10.7,55,0.00,,,0.00,meteobridge,2013-11-03 06:43:00,
2013-11-03 01:49:00,54.0,39.9,29.98,North,0,6.9,6.9,59,0.00,,,0.00,meteobridge,2013-11-03 06:49:00,
2013-11-03 01:54:00,53.6,38.3,29.98,North,0,4.5,7.6,56,0.00,,,0.00,meteobridge,2013-11-03 06:54:00,
2013-11-03 01:59:00,53.2,38.8,29.98,NW,315,5.4,5.4,58,0.00,,,0.00,meteobridge,2013-11-03 06:59:00,
2013-11-03 02:04:00,52.7,39.6,29.98,NW,315,5.4,5.4,61,0.00,,,0.00,meteobridge,2013-11-03 07:04:00,
2013-11-03 02:09:00,53.1,39.6,29.99,North,0,4.5,6.0,60,0.00,,,0.00,meteobridge,2013-11-03 07:09:00,
2013-11-03 02:14:00,53.1,40.5,29.99,North,0,4.5,6.0,62,0.00,,,0.00,meteobridge,2013-11-03 07:14:00,
2013-11-03 02:20:00,52.7,40.1,29.99,North,0,3.1,4.5,62,0.00,,,0.00,meteobridge,2013-11-03 07:20:00,
2013-11-03 02:25:00,52.2,40.3,29.99,North,0,3.8,4.5,64,0.00,,,0.00,meteobridge,2013-11-03 07:25:00,
2013-11-03 02:30:00,52.2,41.2,29.99,North,0,4.5,4.5,66,0.00,,,0.00,meteobridge,2013-11-03 07:30:00,
2013-11-03 02:35:00,52.0,41.0,29.99,NW,315,4.5,4.5,66,0.00,,,0.00,meteobridge,2013-11-03 07:35:00,
2013-11-03 02:40:00,51.6,41.4,29.99,NNW,338,3.8,4.5,68,0.00,,,0.00,meteobridge,2013-11-03 07:40:00,
2013-11-03 02:45:00,51.4,43.2,29.99,NW,315,3.8,3.8,73,0.00,,,0.00,meteobridge,2013-11-03 07:45:00,
2013-11-03 02:51:00,51.4,41.9,30.00,North,0,3.1,5.4,70,0.00,,,0.00,meteobridge,2013-11-03 07:51:00,
2013-11-03 02:56:00,51.8,40.5,30.00,SW,225,4.5,7.6,65,0.00,,,0.00,meteobridge,2013-11-03 07:56:00,
2013-11-03 03:01:00,52.2,40.3,30.00,NW,315,5.4,6.9,64,0.00,,,0.00,meteobridge,2013-11-03 08:01:00,
2013-11-03 03:06:00,52.2,40.3,30.00,NW,315,6.0,6.0,64,0.00,,,0.00,meteobridge,2013-11-03 08:06:00,
2013-11-03 03:11:00,52.0,40.1,30.00,NW,315,5.4,5.4,64,0.00,,,0.00,meteobridge,2013-11-03 08:11:00,
2013-11-03 03:16:00,52.0,39.7,30.01,NW,315,3.1,5.4,63,0.00,,,0.00,meteobridge,2013-11-03 08:16:00,
2013-11-03 03:22:00,51.8,40.1,30.01,WSW,248,4.5,4.5,64,0.00,,,0.00,meteobridge,2013-11-03 08:22:00,
2013-11-03 03:27:00,51.8,40.8,30.01,East,90,3.1,3.8,66,0.00,,,0.00,meteobridge,2013-11-03 08:27:00,
2013-11-03 03:32:00,51.8,40.1,30.01,NW,315,5.4,6.0,64,0.00,,,0.00,meteobridge,2013-11-03 08:32:00,
2013-11-03 03:37:00,51.8,40.1,30.01,North,0,6.0,6.0,64,0.00,,,0.00,meteobridge,2013-11-03 08:37:00,
2013-11-03 03:42:00,51.8,40.1,30.02,NW,315,7.6,7.6,64,0.00,,,0.00,meteobridge,2013-11-03 08:42:00,
2013-11-03 03:48:00,51.8,40.8,30.01,NW,315,5.4,5.4,66,0.00,,,0.00,meteobridge,2013-11-03 08:48:00,
2013-11-03 03:53:00,52.0,41.0,30.01,West,270,7.6,7.6,66,0.00,,,0.00,meteobridge,2013-11-03 08:53:00,
2013-11-03 03:58:00,52.3,41.4,30.02,NW,315,5.4,6.0,66,0.00,,,0.00,meteobridge,2013-11-03 08:58:00,
2013-11-03 04:03:00,52.2,41.2,30.02,NW,315,5.4,6.0,66,0.00,,,0.00,meteobridge,2013-11-03 09:03:00,
2013-11-03 04:08:00,52.2,40.8,30.02,NNW,338,4.5,6.0,65,0.00,,,0.00,meteobridge,2013-11-03 09:08:00,
2013-11-03 04:13:00,52.2,41.2,30.02,North,0,4.5,5.4,66,0.00,,,0.00,meteobridge,2013-11-03 09:13:00,
2013-11-03 04:19:00,51.6,40.6,30.03,North,0,5.4,5.4,66,0.00,,,0.00,meteobridge,2013-11-03 09:19:00,
2013-11-03 04:24:00,51.3,40.6,30.03,NW,315,4.5,5.4,67,0.00,,,0.00,meteobridge,2013-11-03 09:24:00,
2013-11-03 04:29:00,51.4,41.5,30.03,West,270,6.0,7.6,69,0.00,,,0.00,meteobridge,2013-11-03 09:29:00,
2013-11-03 04:34:00,52.0,41.0,30.03,NW,315,9.2,9.2,66,0.00,,,0.00,meteobridge,2013-11-03 09:34:00,
2013-11-03 04:39:00,52.3,41.7,30.04,NW,315,8.3,8.3,67,0.00,,,0.00,meteobridge,2013-11-03 09:39:00,
2013-11-03 04:44:00,52.3,41.0,30.04,NW,315,6.9,9.2,65,0.00,,,0.00,meteobridge,2013-11-03 09:44:00,
2013-11-03 04:50:00,52.2,41.2,30.04,NW,315,6.0,6.0,66,0.00,,,0.00,meteobridge,2013-11-03 09:50:00,
2013-11-03 04:55:00,51.8,40.8,30.05,SW,225,4.5,4.5,66,0.00,,,0.00,meteobridge,2013-11-03 09:55:00,
2013-11-03 05:00:00,51.8,40.8,30.05,North,0,5.4,6.0,66,0.00,,,0.00,meteobridge,2013-11-03 10:00:00,
2013-11-03 05:05:00,52.0,41.4,30.05,North,0,4.5,6.0,67,0.00,,,0.00,meteobridge,2013-11-03 10:05:00,
2013-11-03 05:10:00,51.8,41.2,30.05,NW,315,6.9,6.9,67,0.00,,,0.00,meteobridge,2013-11-03 10:10:00,
2013-11-03 05:16:00,51.8,41.2,30.06,NW,315,4.5,4.5,67,0.00,,,0.00,meteobridge,2013-11-03 10:16:00,
2013-11-03 05:21:00,51.6,41.0,30.06,NW,315,3.1,3.8,67,0.00,,,0.00,meteobridge,2013-11-03 10:21:00,
2013-11-03 05:26:00,51.4,40.5,30.06,NW,315,3.1,4.5,66,0.00,,,0.00,meteobridge,2013-11-03 10:26:00,
2013-11-03 05:31:00,51.3,41.0,30.06,NW,315,3.8,5.4,68,0.00,,,0.00,meteobridge,2013-11-03 10:31:00,
2013-11-03 05:36:00,51.4,40.8,30.07,NW,315,5.4,6.0,67,0.00,,,0.00,meteobridge,2013-11-03 10:36:00,
2013-11-03 05:41:00,51.4,41.2,30.07,West,270,6.9,6.9,68,0.00,,,0.00,meteobridge,2013-11-03 10:41:00,
2013-11-03 05:47:00,51.4,41.9,30.07,West,270,7.6,7.6,70,0.00,,,0.00,meteobridge,2013-11-03 10:47:00,
2013-11-03 05:52:00,51.4,40.5,30.07,NW,315,5.4,8.3,66,0.00,,,0.00,meteobridge,2013-11-03 10:52:00,
2013-11-03 05:57:00,51.3,41.0,30.08,NW,315,8.3,9.2,68,0.00,,,0.00,meteobridge,2013-11-03 10:57:00,
2013-11-03 06:02:00,51.4,40.1,30.07,West,270,6.0,13.0,65,0.00,,,0.00,meteobridge,2013-11-03 11:02:00,
2013-11-03 06:07:00,51.4,40.1,30.08,NW,315,6.9,11.4,65,0.00,,,0.00,meteobridge,2013-11-03 11:07:00,
2013-11-03 06:12:00,51.4,41.2,30.08,NW,315,9.2,9.2,68,0.00,,,0.00,meteobridge,2013-11-03 11:12:00,
2013-11-03 06:18:00,51.4,40.1,30.08,WSW,248,6.0,9.8,65,0.00,,,0.00,meteobridge,2013-11-03 11:18:00,
2013-11-03 06:23:00,51.6,40.6,30.08,NW,315,8.3,9.2,66,0.00,,,0.00,meteobridge,2013-11-03 11:23:00,
2013-11-03 06:28:00,51.6,40.3,30.08,NW,315,10.7,10.7,65,0.00,,,0.00,meteobridge,2013-11-03 11:28:00,
2013-11-03 06:33:00,51.8,40.5,30.09,NW,315,13.0,13.0,65,0.00,,,0.00,meteobridge,2013-11-03 11:33:00,
2013-11-03 06:38:00,52.2,40.8,30.09,North,0,13.6,15.9,65,0.00,,,0.00,meteobridge,2013-11-03 11:38:00,
2013-11-03 06:43:00,52.2,40.3,30.09,WNW,293,11.4,13.0,64,0.00,,,0.00,meteobridge,2013-11-03 11:43:00,
2013-11-03 06:49:00,52.2,39.9,30.10,North,0,9.8,15.2,63,0.00,,,0.00,meteobridge,2013-11-03 11:49:00,
2013-11-03 06:54:00,52.0,40.6,30.11,NW,315,8.3,11.4,65,0.00,,,0.00,meteobridge,2013-11-03 11:54:00,
2013-11-03 06:59:00,52.0,40.6,30.11,NW,315,7.6,13.0,65,0.00,,,0.00,meteobridge,2013-11-03 11:59:00,
2013-11-03 07:04:00,52.0,39.7,30.12,NW,315,11.4,11.4,63,0.00,,,0.00,meteobridge,2013-11-03 12:04:00,
2013-11-03 07:09:00,52.0,39.7,30.12,West,270,9.8,9.8,63,0.00,,,0.00,meteobridge,2013-11-03 12:09:00,
2013-11-03 07:15:00,52.3,39.4,30.13,SW,225,6.9,9.8,61,0.00,,,0.00,meteobridge,2013-11-03 12:15:00,
2013-11-03 07:20:00,53.6,40.5,30.13,NW,315,5.4,8.3,61,0.00,,,0.00,meteobridge,2013-11-03 12:20:00,
2013-11-03 07:25:00,54.3,41.2,30.13,NW,315,6.9,8.3,61,0.00,,,0.00,meteobridge,2013-11-03 12:25:00,
2013-11-03 07:30:00,54.7,40.3,30.14,East,90,6.9,6.9,58,0.00,,,0.00,meteobridge,2013-11-03 12:30:00,
2013-11-03 07:35:00,55.2,41.5,30.14,West,270,6.0,7.6,60,0.00,,,0.00,meteobridge,2013-11-03 12:35:00,
2013-11-03 07:40:00,54.3,40.3,30.14,West,270,9.2,14.5,59,0.00,,,0.00,meteobridge,2013-11-03 12:40:00,
2013-11-03 07:46:00,54.3,40.8,30.14,NW,315,6.9,7.6,60,0.00,,,0.00,meteobridge,2013-11-03 12:46:00,
2013-11-03 07:51:00,54.9,40.3,30.14,South,180,6.9,7.6,58,0.00,,,0.00,meteobridge,2013-11-03 12:51:00,
2013-11-03 07:56:00,55.2,40.6,30.15,West,270,10.7,10.7,58,0.00,,,0.00,meteobridge,2013-11-03 12:56:00,
2013-11-03 08:01:00,54.1,39.7,30.15,NW,315,10.7,10.7,58,0.00,,,0.00,meteobridge,2013-11-03 13:01:00,
2013-11-03 08:06:00,54.0,39.6,30.15,NW,315,9.8,12.1,58,0.00,,,0.00,meteobridge,2013-11-03 13:06:00,
2013-11-03 08:11:00,55.4,40.8,30.16,North,0,8.3,8.3,58,0.00,,,0.00,meteobridge,2013-11-03 13:11:00,
2013-11-03 08:17:00,55.0,40.1,30.16,NW,315,9.2,10.7,57,0.00,,,0.00,meteobridge,2013-11-03 13:17:00,
2013-11-03 08:22:00,56.3,41.2,30.17,West,270,9.2,9.2,57,0.00,,,0.00,meteobridge,2013-11-03 13:22:00,
2013-11-03 08:27:00,56.1,41.2,30.16,West,270,7.6,9.2,57,0.00,,,0.00,meteobridge,2013-11-03 13:27:00,
2013-11-03 08:32:00,57.7,42.6,30.17,West,270,6.0,6.0,57,0.00,,,0.00,meteobridge,2013-11-03 13:32:00,
2013-11-03 08:37:00,58.1,42.1,30.16,NW,315,9.8,9.8,55,0.00,,,0.00,meteobridge,2013-11-03 13:37:00,
2013-11-03 08:42:00,57.7,42.1,30.17,WSW,248,7.6,8.3,56,0.00,,,0.00,meteobridge,2013-11-03 13:42:00,
2013-11-03 08:48:00,58.1,41.5,30.17,NW,315,5.4,9.2,54,0.00,,,0.00,meteobridge,2013-11-03 13:48:00,
2013-11-03 08:53:00,58.1,41.5,30.17,NW,315,11.4,13.0,54,0.00,,,0.00,meteobridge,2013-11-03 13:53:00,
2013-11-03 08:58:00,58.1,41.5,30.17,NW,315,14.5,14.5,54,0.00,,,0.00,meteobridge,2013-11-03 13:58:00,
2013-11-03 09:03:00,58.3,41.2,30.17,NW,315,12.1,12.1,53,0.00,,,0.00,meteobridge,2013-11-03 14:03:00,
2013-11-03 09:08:00,57.7,40.6,30.17,NW,315,14.5,15.2,53,0.00,,,0.00,meteobridge,2013-11-03 14:08:00,
2013-11-03 09:13:00,57.9,39.9,30.18,North,0,13.0,18.3,51,0.00,,,0.00,meteobridge,2013-11-03 14:13:00,
2013-11-03 09:19:00,58.5,41.4,30.18,North,0,11.4,12.1,53,0.00,,,0.00,meteobridge,2013-11-03 14:19:00,
2013-11-03 09:24:00,59.0,40.5,30.18,West,270,12.1,12.1,50,0.00,,,0.00,meteobridge,2013-11-03 14:24:00,
2013-11-03 09:29:00,59.4,40.3,30.18,NW,315,13.0,13.0,49,0.00,,,0.00,meteobridge,2013-11-03 14:29:00,
2013-11-03 09:34:00,57.9,38.8,30.18,NW,315,14.5,16.8,49,0.00,,,0.00,meteobridge,2013-11-03 14:34:00,
2013-11-03 09:39:00,59.2,42.1,30.18,NW,315,8.3,10.7,53,0.00,,,0.00,meteobridge,2013-11-03 14:39:00,
2013-11-03 09:44:00,59.9,40.6,30.18,NW,315,13.0,13.0,49,0.00,,,0.00,meteobridge,2013-11-03 14:44:00,
2013-11-03 09:50:00,60.1,40.3,30.18,North,0,13.6,13.6,48,0.00,,,0.00,meteobridge,2013-11-03 14:50:00,
2013-11-03 09:56:00,59.4,37.9,30.18,NW,315,13.6,18.3,45,0.00,,,0.00,meteobridge,2013-11-03 14:56:00,
2013-11-03 10:01:00,58.5,38.3,30.18,North,0,17.4,20.6,47,0.00,,,0.00,meteobridge,2013-11-03 15:01:00,
2013-11-03 10:06:00,58.8,38.7,30.19,NW,315,13.6,17.4,47,0.00,,,0.00,meteobridge,2013-11-03 15:06:00,
2013-11-03 10:11:00,59.2,39.6,30.19,NW,315,13.0,14.5,48,0.00,,,0.00,meteobridge,2013-11-03 15:11:00,
2013-11-03 10:17:00,59.7,40.5,30.19,WNW,293,15.2,15.2,49,0.00,,,0.00,meteobridge,2013-11-03 15:17:00,
2013-11-03 10:22:00,59.4,39.2,30.19,NW,315,10.7,13.0,47,0.00,,,0.00,meteobridge,2013-11-03 15:22:00,
2013-11-03 10:27:00,59.9,39.6,30.19,NW,315,15.2,15.2,47,0.00,,,0.00,meteobridge,2013-11-03 15:27:00,
2013-11-03 10:32:00,59.4,38.7,30.19,South,180,13.0,19.0,46,0.00,,,0.00,meteobridge,2013-11-03 15:32:00,
2013-11-03 10:37:00,60.3,39.9,30.19,NW,315,15.9,15.9,47,0.00,,,0.00,meteobridge,2013-11-03 15:37:00,
2013-11-03 10:42:00,60.6,39.2,30.19,NW,315,8.3,10.7,45,0.00,,,0.00,meteobridge,2013-11-03 15:42:00,
2013-11-03 10:48:00,61.7,40.1,30.19,NW,315,12.1,12.1,45,0.00,,,0.00,meteobridge,2013-11-03 15:48:00,
2013-11-03 10:53:00,60.6,40.3,30.19,NW,315,15.2,15.2,47,0.00,,,0.00,meteobridge,2013-11-03 15:53:00,
2013-11-03 10:58:00,60.1,38.7,30.20,NW,315,12.1,12.1,45,0.00,,,0.00,meteobridge,2013-11-03 15:58:00,
2013-11-03 11:03:00,61.0,38.8,30.20,NW,315,15.2,19.0,44,0.00,,,0.00,meteobridge,2013-11-03 16:03:00,
2013-11-03 11:08:00,61.2,39.7,30.20,NW,315,8.3,8.3,45,0.00,,,0.00,meteobridge,2013-11-03 16:08:00,
2013-11-03 11:13:00,62.4,39.6,30.20,North,0,9.8,10.7,43,0.00,,,0.00,meteobridge,2013-11-03 16:13:00,
2013-11-03 11:19:00,62.8,39.4,30.19,North,0,9.8,9.8,42,0.00,,,0.00,meteobridge,2013-11-03 16:19:00,
2013-11-03 11:24:00,62.6,39.2,30.19,NW,315,10.7,10.7,42,0.00,,,0.00,meteobridge,2013-11-03 16:24:00,
2013-11-03 11:29:00,61.7,39.6,30.19,NW,315,6.0,13.0,44,0.00,,,0.00,meteobridge,2013-11-03 16:29:00,
2013-11-03 11:34:00,62.6,39.2,30.19,West,270,13.0,13.0,42,0.00,,,0.00,meteobridge,2013-11-03 16:34:00,
2013-11-03 11:39:00,62.2,38.8,30.19,NW,315,8.3,8.3,42,0.00,,,0.00,meteobridge,2013-11-03 16:39:00,
2013-11-03 11:44:00,62.8,39.9,30.19,North,0,7.6,9.2,43,0.00,,,0.00,meteobridge,2013-11-03 16:44:00,
2013-11-03 11:50:00,62.6,37.9,30.19,North,0,13.0,13.0,40,0.00,,,0.00,meteobridge,2013-11-03 16:50:00,
2013-11-03 11:55:00,62.1,38.1,30.19,North,0,14.5,17.4,41,0.00,,,0.00,meteobridge,2013-11-03 16:55:00,
2013-11-03 12:00:00,61.9,37.2,30.19,North,0,14.5,14.5,40,0.00,,,0.00,meteobridge,2013-11-03 17:00:00,
2013-11-03 12:05:00,62.1,38.7,30.19,NW,315,8.3,10.7,42,0.00,,,0.00,meteobridge,2013-11-03 17:05:00,
2013-11-03 12:10:00,62.6,38.5,30.19,North,0,13.6,13.6,41,0.00,,,0.00,meteobridge,2013-11-03 17:10:00,
2013-11-03 12:15:00,62.4,37.2,30.18,NE,45,13.6,13.6,39,0.00,,,0.00,meteobridge,2013-11-03 17:15:00,
2013-11-03 12:21:00,63.1,37.0,30.18,North,0,6.9,6.9,38,0.00,,,0.00,meteobridge,2013-11-03 17:21:00,
2013-11-03 12:26:00,63.7,38.8,30.18,North,0,15.9,15.9,40,0.00,,,0.00,meteobridge,2013-11-03 17:26:00,
2013-11-03 12:31:00,62.8,36.9,30.18,North,0,15.2,15.2,38,0.00,,,0.00,meteobridge,2013-11-03 17:31:00,
2013-11-03 12:36:00,62.8,36.1,30.17,North,0,6.9,11.4,37,0.00,,,0.00,meteobridge,2013-11-03 17:36:00,
2013-11-03 12:41:00,63.0,37.6,30.17,NW,315,13.6,13.6,39,0.00,,,0.00,meteobridge,2013-11-03 17:41:00,
2013-11-03 12:47:00,62.6,37.2,30.17,North,0,11.4,11.4,39,0.00,,,0.00,meteobridge,2013-11-03 17:47:00,
2013-11-03 12:52:00,63.0,36.3,30.17,NW,315,9.8,10.7,37,0.00,,,0.00,meteobridge,2013-11-03 17:52:00,
2013-11-03 12:57:00,63.5,37.4,30.17,North,0,9.8,9.8,38,0.00,,,0.00,meteobridge,2013-11-03 17:57:00,
2013-11-03 13:02:00,63.5,39.4,30.17,NW,315,13.6,14.5,41,0.00,,,0.00,meteobridge,2013-11-03 18:02:00,
2013-11-03 13:07:00,63.9,39.7,30.17,NW,315,7.6,9.2,41,0.00,,,0.00,meteobridge,2013-11-03 18:07:00,
2013-11-03 13:12:00,64.8,38.5,30.17,North,0,10.7,10.7,38,0.00,,,0.00,meteobridge,2013-11-03 18:12:00,
2013-11-03 13:18:00,65.5,38.5,30.17,North,0,11.4,11.4,37,0.00,,,0.00,meteobridge,2013-11-03 18:18:00,
2013-11-03 13:23:00,63.7,38.8,30.17,North,0,13.0,16.8,40,0.00,,,0.00,meteobridge,2013-11-03 18:23:00,
2013-11-03 13:28:00,64.4,38.8,30.17,North,0,8.3,9.2,39,0.00,,,0.00,meteobridge,2013-11-03 18:28:00,
2013-11-03 13:33:00,64.8,37.9,30.17,NW,315,8.3,9.2,37,0.00,,,0.00,meteobridge,2013-11-03 18:33:00,
2013-11-03 13:38:00,64.6,39.7,30.17,North,0,11.4,11.4,40,0.00,,,0.00,meteobridge,2013-11-03 18:38:00,
2013-11-03 13:43:00,64.0,36.5,30.17,North,0,13.6,13.6,36,0.00,,,0.00,meteobridge,2013-11-03 18:43:00,
2013-11-03 13:49:00,63.9,36.3,30.17,North,0,12.1,18.3,36,0.00,,,0.00,meteobridge,2013-11-03 18:49:00,
2013-11-03 13:54:00,64.2,35.2,30.16,NW,315,15.9,16.8,34,0.00,,,0.00,meteobridge,2013-11-03 18:54:00,
2013-11-03 13:59:00,63.7,37.6,30.16,NW,315,11.4,14.5,38,0.00,,,0.00,meteobridge,2013-11-03 18:59:00,
2013-11-03 14:04:00,63.9,34.9,30.17,NW,315,7.6,13.6,34,0.00,,,0.00,meteobridge,2013-11-03 19:04:00,
2013-11-03 14:09:00,64.2,36.7,30.17,WNW,293,10.7,14.5,36,0.00,,,0.00,meteobridge,2013-11-03 19:09:00,
2013-11-03 14:14:00,64.6,37.8,30.17,NNW,338,13.0,13.0,37,0.00,,,0.00,meteobridge,2013-11-03 19:14:00,
2013-11-03 14:20:00,64.4,36.9,30.17,NNW,338,9.8,13.6,36,0.00,,,0.00,meteobridge,2013-11-03 19:20:00,
2013-11-03 14:25:00,63.9,35.6,30.17,North,0,10.7,15.2,35,0.00,,,0.00,meteobridge,2013-11-03 19:25:00,
2013-11-03 14:30:00,64.9,39.4,30.17,NW,315,7.6,9.8,39,0.00,,,0.00,meteobridge,2013-11-03 19:30:00,
2013-11-03 14:35:00,65.1,36.9,30.17,North,0,10.7,10.7,35,0.00,,,0.00,meteobridge,2013-11-03 19:35:00,
2013-11-03 14:40:00,64.0,36.5,30.17,NW,315,8.3,13.0,36,0.00,,,0.00,meteobridge,2013-11-03 19:40:00,
2013-11-03 14:45:00,64.0,34.3,30.17,NW,315,9.8,15.2,33,0.00,,,0.00,meteobridge,2013-11-03 19:45:00,
2013-11-03 14:50:00,64.8,39.2,30.17,NW,315,6.9,7.6,39,0.00,,,0.00,meteobridge,2013-11-03 19:50:00,
2013-11-03 14:56:00,65.7,37.2,30.17,North,0,5.4,9.2,35,0.00,,,0.00,meteobridge,2013-11-03 19:56:00,
2013-11-03 15:01:00,66.6,35.8,30.18,NW,315,4.5,4.5,32,0.00,,,0.00,meteobridge,2013-11-03 20:01:00,
2013-11-03 15:06:00,67.8,38.5,30.18,NW,315,8.3,8.3,34,0.00,,,0.00,meteobridge,2013-11-03 20:06:00,
2013-11-03 15:11:00,66.6,39.6,30.18,North,0,18.3,18.3,37,0.00,,,0.00,meteobridge,2013-11-03 20:11:00,
2013-11-03 15:16:00,64.8,36.5,30.17,North,0,8.3,11.4,35,0.00,,,0.00,meteobridge,2013-11-03 20:16:00,
2013-11-03 15:21:00,65.5,37.0,30.18,North,0,9.8,9.8,35,0.00,,,0.00,meteobridge,2013-11-03 20:21:00,
2013-11-03 15:27:00,65.3,36.9,30.17,North,0,8.3,9.8,35,0.00,,,0.00,meteobridge,2013-11-03 20:27:00,
2013-11-03 15:32:00,65.7,37.2,30.18,North,0,11.4,11.4,35,0.00,,,0.00,meteobridge,2013-11-03 20:32:00,
2013-11-03 15:37:00,65.8,38.8,30.18,North,0,9.2,11.4,37,0.00,,,0.00,meteobridge,2013-11-03 20:37:00,
2013-11-03 15:42:00,64.9,36.7,30.18,NW,315,9.2,12.1,35,0.00,,,0.00,meteobridge,2013-11-03 20:42:00,
2013-11-03 15:47:00,65.5,38.5,30.19,NW,315,9.2,9.2,37,0.00,,,0.00,meteobridge,2013-11-03 20:47:00,
2013-11-03 15:52:00,64.8,36.5,30.19,North,0,11.4,13.6,35,0.00,,,0.00,meteobridge,2013-11-03 20:52:00,
2013-11-03 15:58:00,64.8,36.5,30.19,North,0,13.6,13.6,35,0.00,,,0.00,meteobridge,2013-11-03 20:58:00,
2013-11-03 16:03:00,64.8,37.2,30.19,NW,315,8.3,10.7,36,0.00,,,0.00,meteobridge,2013-11-03 21:03:00,
2013-11-03 16:08:00,65.5,38.5,30.19,NW,315,9.8,9.8,37,0.00,,,0.00,meteobridge,2013-11-03 21:08:00,
2013-11-03 16:13:00,65.5,38.5,30.19,NW,315,9.2,9.2,37,0.00,,,0.00,meteobridge,2013-11-03 21:13:00,
2013-11-03 16:18:00,64.9,37.4,30.20,NW,315,6.9,11.4,36,0.00,,,0.00,meteobridge,2013-11-03 21:18:00,
2013-11-03 16:23:00,65.1,38.8,30.20,NW,315,10.7,12.1,38,0.00,,,0.00,meteobridge,2013-11-03 21:23:00,
2013-11-03 16:29:00,64.6,36.3,30.20,North,0,7.6,10.7,35,0.00,,,0.00,meteobridge,2013-11-03 21:29:00,
2013-11-03 16:34:00,65.1,39.6,30.20,NW,315,4.5,4.5,39,0.00,,,0.00,meteobridge,2013-11-03 21:34:00,
2013-11-03 16:39:00,65.1,39.6,30.20,North,0,6.9,6.9,39,0.00,,,0.00,meteobridge,2013-11-03 21:39:00,
2013-11-03 16:44:00,64.8,37.9,30.20,NW,315,6.0,6.0,37,0.00,,,0.00,meteobridge,2013-11-03 21:44:00,
2013-11-03 16:49:00,63.7,37.6,30.20,North,0,8.3,9.8,38,0.00,,,0.00,meteobridge,2013-11-03 21:49:00,
2013-11-03 16:54:00,63.1,38.5,30.21,NW,315,6.9,7.6,40,0.00,,,0.00,meteobridge,2013-11-03 21:54:00,
2013-11-03 17:00:00,62.4,39.0,30.21,North,0,4.5,6.0,42,0.00,,,0.00,meteobridge,2013-11-03 22:00:00,
2013-11-03 17:05:00,61.5,39.4,30.22,NW,315,4.5,4.5,44,0.00,,,0.00,meteobridge,2013-11-03 22:05:00,
2013-11-03 17:10:00,61.0,39.6,30.22,North,0,4.5,4.5,45,0.00,,,0.00,meteobridge,2013-11-03 22:10:00,
2013-11-03 17:15:00,60.6,40.8,30.22,North,0,3.1,3.1,48,0.00,,,0.00,meteobridge,2013-11-03 22:15:00,
2013-11-03 17:20:00,59.9,40.6,30.22,South,180,0.7,1.6,49,0.00,,,0.00,meteobridge,2013-11-03 22:20:00,
2013-11-03 17:25:00,59.0,42.4,30.22,SE,135,3.1,3.1,54,0.00,,,0.00,meteobridge,2013-11-03 22:25:00,
2013-11-03 17:31:00,57.7,42.1,30.22,SE,135,3.1,3.1,56,0.00,,,0.00,meteobridge,2013-11-03 22:31:00,
2013-11-03 17:36:00,56.5,41.9,30.23,SE,135,3.1,3.1,58,0.00,,,0.00,meteobridge,2013-11-03 22:36:00,
2013-11-03 17:41:00,55.6,41.5,30.22,SE,135,3.1,3.1,59,0.00,,,0.00,meteobridge,2013-11-03 22:41:00,
2013-11-03 17:46:00,55.0,41.9,30.23,East,90,2.2,3.1,61,0.00,,,0.00,meteobridge,2013-11-03 22:46:00,
2013-11-03 17:51:00,54.7,42.3,30.23,East,90,3.1,3.1,63,0.00,,,0.00,meteobridge,2013-11-03 22:51:00,
2013-11-03 17:56:00,54.3,42.1,30.23,East,90,2.2,2.2,63,0.00,,,0.00,meteobridge,2013-11-03 22:56:00,
2013-11-03 18:02:00,53.8,42.6,30.23,SE,135,2.2,3.1,66,0.00,,,0.00,meteobridge,2013-11-03 23:02:00,
2013-11-03 18:07:00,53.4,42.8,30.24,SE,135,2.2,3.1,67,0.00,,,0.00,meteobridge,2013-11-03 23:07:00,
2013-11-03 18:12:00,53.1,43.5,30.24,East,90,3.8,3.8,70,0.00,,,0.00,meteobridge,2013-11-03 23:12:00,
2013-11-03 18:17:00,52.7,43.2,30.24,East,90,3.1,3.1,70,0.00,,,0.00,meteobridge,2013-11-03 23:17:00,
2013-11-03 18:22:00,52.5,43.7,30.25,East,90,3.1,3.1,72,0.00,,,0.00,meteobridge,2013-11-03 23:22:00,
2013-11-03 18:27:00,52.3,43.5,30.25,SE,135,2.2,2.2,72,0.00,,,0.00,meteobridge,2013-11-03 23:27:00,
2013-11-03 18:33:00,51.8,43.3,30.25,SE,135,3.1,3.1,73,0.00,,,0.00,meteobridge,2013-11-03 23:33:00,
2013-11-03 18:38:00,51.6,43.5,30.25,East,90,3.1,3.8,74,0.00,,,0.00,meteobridge,2013-11-03 23:38:00,
2013-11-03 18:43:00,51.6,43.9,30.25,SE,135,3.1,3.1,75,0.00,,,0.00,meteobridge,2013-11-03 23:43:00,
2013-11-03 18:48:00,51.3,43.9,30.26,SE,135,3.1,3.1,76,0.00,,,0.00,meteobridge,2013-11-03 23:48:00,
2013-11-03 18:53:00,51.1,44.4,30.26,SE,135,3.1,3.1,78,0.00,,,0.00,meteobridge,2013-11-03 23:53:00,
2013-11-03 18:58:00,50.9,44.6,30.27,SE,135,3.1,3.1,79,0.00,,,0.00,meteobridge,2013-11-03 23:58:00,
2013-11-03 19:04:00,50.7,44.8,30.27,SE,135,3.1,3.1,80,0.00,,,0.00,meteobridge,2013-11-04 00:04:00,
2013-11-03 19:09:00,50.5,45.3,30.27,SE,135,3.1,3.1,82,0.00,,,0.00,meteobridge,2013-11-04 00:09:00,
2013-11-03 19:14:00,50.4,44.8,30.27,SE,135,2.2,2.2,81,0.00,,,0.00,meteobridge,2013-11-04 00:14:00,
2013-11-03 19:19:00,50.4,45.1,30.27,SE,135,2.2,3.1,82,0.00,,,0.00,meteobridge,2013-11-04 00:19:00,
2013-11-03 19:24:00,50.2,45.0,30.27,East,90,2.2,2.2,82,0.00,,,0.00,meteobridge,2013-11-04 00:24:00,
2013-11-03 19:29:00,50.0,44.8,30.27,ESE,113,1.6,2.2,82,0.00,,,0.00,meteobridge,2013-11-04 00:29:00,
2013-11-03 19:35:00,49.8,44.8,30.28,SE,135,2.2,2.2,83,0.00,,,0.00,meteobridge,2013-11-04 00:35:00,
2013-11-03 19:40:00,49.6,45.0,30.28,SE,135,3.1,3.1,84,0.00,,,0.00,meteobridge,2013-11-04 00:40:00,
2013-11-03 19:45:00,49.5,44.8,30.28,SE,135,2.2,2.2,84,0.00,,,0.00,meteobridge,2013-11-04 00:45:00,
2013-11-03 19:50:00,49.3,45.0,30.29,SE,135,3.1,3.1,85,0.00,,,0.00,meteobridge,2013-11-04 00:50:00,
2013-11-03 19:55:00,48.9,45.0,30.29,East,90,3.8,3.8,86,0.00,,,0.00,meteobridge,2013-11-04 00:55:00,
2013-11-03 20:00:00,48.7,44.8,30.29,SE,135,2.2,2.2,86,0.00,,,0.00,meteobridge,2013-11-04 01:00:00,
2013-11-03 20:06:00,48.7,45.0,30.29,SE,135,3.1,3.1,87,0.00,,,0.00,meteobridge,2013-11-04 01:06:00,
2013-11-03 20:11:00,48.9,45.5,30.30,SE,135,3.1,3.1,88,0.00,,,0.00,meteobridge,2013-11-04 01:11:00,
2013-11-03 20:16:00,48.9,45.9,30.30,SE,135,2.2,2.2,89,0.00,,,0.00,meteobridge,2013-11-04 01:16:00,
2013-11-03 20:21:00,48.7,45.7,30.30,SE,135,2.2,2.2,89,0.00,,,0.00,meteobridge,2013-11-04 01:21:00,
2013-11-03 20:26:00,48.7,45.9,30.30,SE,135,1.6,2.2,90,0.00,,,0.00,meteobridge,2013-11-04 01:26:00,
2013-11-03 20:31:00,48.4,45.5,30.31,SE,135,1.6,1.6,90,0.00,,,0.00,meteobridge,2013-11-04 01:31:00,
2013-11-03 20:37:00,48.2,45.3,30.31,SE,135,2.2,3.1,90,0.00,,,0.00,meteobridge,2013-11-04 01:37:00,
2013-11-03 20:42:00,48.2,45.7,30.31,SE,135,2.2,2.2,91,0.00,,,0.00,meteobridge,2013-11-04 01:42:00,
2013-11-03 20:47:00,48.0,45.9,30.32,SE,135,3.1,3.1,92,0.00,,,0.00,meteobridge,2013-11-04 01:47:00,
2013-11-03 20:52:00,48.0,46.0,30.32,SE,135,1.6,2.2,93,0.00,,,0.00,meteobridge,2013-11-04 01:52:00,
2013-11-03 20:57:00,47.7,46.0,30.32,ESE,113,2.2,2.2,94,0.00,,,0.00,meteobridge,2013-11-04 01:57:00,
2013-11-03 21:03:00,47.5,46.0,30.33,SE,135,2.2,2.2,95,0.00,,,0.00,meteobridge,2013-11-04 02:03:00,
2013-11-03 21:08:00,47.3,45.9,30.33,SE,135,1.6,2.2,95,0.00,,,0.00,meteobridge,2013-11-04 02:08:00,
2013-11-03 21:13:00,47.5,46.4,30.32,East,90,3.1,3.1,96,0.00,,,0.00,meteobridge,2013-11-04 02:13:00,
2013-11-03 21:18:00,47.7,46.6,30.33,SE,135,2.2,2.2,96,0.00,,,0.00,meteobridge,2013-11-04 02:18:00,
2013-11-03 21:23:00,47.7,46.9,30.33,SE,135,1.6,1.6,97,0.00,,,0.00,meteobridge,2013-11-04 02:23:00,
2013-11-03 21:28:00,47.5,46.8,30.33,SE,135,1.6,2.2,97,0.00,,,0.00,meteobridge,2013-11-04 02:28:00,
2013-11-03 21:34:00,47.5,46.8,30.33,SE,135,1.6,1.6,97,0.00,,,0.00,meteobridge,2013-11-04 02:34:00,
2013-11-03 21:39:00,47.5,46.8,30.33,SE,135,1.6,1.6,97,0.00,,,0.00,meteobridge,2013-11-04 02:39:00,
2013-11-03 21:44:00,47.1,46.6,30.33,SE,135,2.2,2.2,98,0.00,,,0.00,meteobridge,2013-11-04 02:44:00,
2013-11-03 21:49:00,47.1,46.6,30.33,SE,135,1.6,1.6,98,0.00,,,0.00,meteobridge,2013-11-04 02:49:00,
2013-11-03 21:54:00,46.9,46.4,30.34,SE,135,2.2,2.2,98,0.00,,,0.00,meteobridge,2013-11-04 02:54:00,
2013-11-03 21:59:00,46.8,46.2,30.34,East,90,2.2,2.2,98,0.00,,,0.00,meteobridge,2013-11-04 02:59:00,
2013-11-03 22:05:00,46.8,46.6,30.34,SE,135,2.2,2.2,99,0.00,,,0.00,meteobridge,2013-11-04 03:05:00,
2013-11-03 22:10:00,46.8,46.6,30.34,East,90,2.2,2.2,99,0.00,,,0.00,meteobridge,2013-11-04 03:10:00,
2013-11-03 22:15:00,46.8,46.2,30.35,SE,135,1.6,1.6,98,0.00,,,0.00,meteobridge,2013-11-04 03:15:00,
2013-11-03 22:20:00,46.9,46.2,30.35,NE,45,2.2,2.2,97,0.00,,,0.00,meteobridge,2013-11-04 03:20:00,
2013-11-03 22:25:00,46.9,45.9,30.34,East,90,1.6,3.1,96,0.00,,,0.00,meteobridge,2013-11-04 03:25:00,
2013-11-03 22:30:00,46.9,45.5,30.35,NE,45,1.6,1.6,95,0.00,,,0.00,meteobridge,2013-11-04 03:30:00,
2013-11-03 22:36:00,46.9,45.3,30.35,East,90,2.2,2.2,94,0.00,,,0.00,meteobridge,2013-11-04 03:36:00,
2013-11-03 22:41:00,46.9,45.3,30.35,East,90,2.2,2.2,94,0.00,,,0.00,meteobridge,2013-11-04 03:41:00,
2013-11-03 22:46:00,46.9,45.3,30.36,East,90,2.2,2.2,94,0.00,,,0.00,meteobridge,2013-11-04 03:46:00,
2013-11-03 22:51:00,46.9,45.0,30.36,East,90,1.6,2.2,93,0.00,,,0.00,meteobridge,2013-11-04 03:51:00,
2013-11-03 22:56:00,46.9,44.8,30.36,East,90,1.6,1.6,92,0.00,,,0.00,meteobridge,2013-11-04 03:56:00,
2013-11-03 23:01:00,46.8,44.2,30.37,East,90,2.2,2.2,91,0.00,,,0.00,meteobridge,2013-11-04 04:01:00,
2013-11-03 23:07:00,46.8,44.2,30.36,East,90,2.2,3.1,91,0.00,,,0.00,meteobridge,2013-11-04 04:07:00,
2013-11-03 23:12:00,46.6,43.9,30.36,NE,45,2.2,3.1,90,0.00,,,0.00,meteobridge,2013-11-04 04:12:00,
2013-11-03 23:17:00,46.8,43.7,30.36,NE,45,1.6,3.1,89,0.00,,,0.00,meteobridge,2013-11-04 04:17:00,
2013-11-03 23:22:00,46.6,43.5,30.36,East,90,3.1,3.1,89,0.00,,,0.00,meteobridge,2013-11-04 04:22:00,
2013-11-03 23:27:00,46.6,43.2,30.36,NE,45,3.1,3.1,88,0.00,,,0.00,meteobridge,2013-11-04 04:27:00,
2013-11-03 23:32:00,46.6,43.2,30.37,East,90,3.1,3.1,88,0.00,,,0.00,meteobridge,2013-11-04 04:32:00,
2013-11-03 23:38:00,46.4,43.0,30.36,North,0,3.1,3.1,88,0.00,,,0.00,meteobridge,2013-11-04 04:38:00,
2013-11-03 23:43:00,46.2,43.2,30.37,East,90,2.2,2.2,89,0.00,,,0.00,meteobridge,2013-11-04 04:43:00,
2013-11-03 23:48:00,46.0,43.3,30.37,East,90,2.2,2.2,90,0.00,,,0.00,meteobridge,2013-11-04 04:48:00,
2013-11-03 23:53:00,45.9,43.2,30.37,SE,135,2.2,2.2,90,0.00,,,0.00,meteobridge,2013-11-04 04:53:00,
2013-11-03 23:58:00,45.9,43.3,30.37,NE,45,2.2,2.2,91,0.00,,,0.00,meteobridge,2013-11-04 04:58:00,